Flugplatz Wittmundhafen Airport

Bericht für ETNT

vom 15.10. um 07:20 UTC

Wind 2 kt aus 190°

Sichtweite 10 km oder mehr

gering bewölkt in 22000 ft

aufgelockert bewölkt in 36000 ft

Temperatur 13.0°C

Taupunkt 12.0°C

Luftfeuchtigkeit 94%

Luftdruck 1005 hPa

ETNT 150720Z 19002KT 9999 FEW220 SCT360 13/12 Q1005 BLU+BLU+ BECMG BLU

Prognose für ETNT

vom 15.10. um 00:00 UTC

Zwischen 00:00 UTC und 00:00 UTC

Wind 7 kt aus 180°

Sichtweite 10 km oder mehr

keine signifikanten Wettererscheinungen

aufgelockert bewölkt in 7000 ft

aufgebrochene Bewölkung in 25000 ft


Zwischen 00:00 UTC und 00:00 UTC zeitweise

Wind 12 kt aus 220°

Sichtweite 5000 m

schwacher Sprühregen

schwacher Regen

gering bewölkt in 1500 ft

aufgebrochene Bewölkung in 3000 ft

bedeckt in 7000 ft

TAF ETNT 150725Z 1508/1517 18007KT 9999 NSW SCT070 BKN250 TEMPO 1511/1517 22012KT 5000 -DZRA FEW015 BKN030 OVC070 BY ETGL
Impressum